LGL532 ELLX-LPPR
Flight info
| Callsign | LGL532 |
|---|---|
| Flight time | N/A |
| Altitude | 31000 |
| Route | RAPOR DCT GIMER/N0453F330 DCT BSN DCT ESTOC/N0455F350 UT300 PON UN872 ERIGA UZ218 FUJTI DCT ATLEN DCT INSID T326 ASPOR |
| Aircraft | B738/M-SDE2E3FGHIRWXY/LB1 |
Departure
| Time | 2026-05-01 15:33 |
|---|---|
| Airport | Luxembourg-Findel International Airport (ELLX) |
Arrival
| Time | N/A |
|---|---|
| Airport | Francisco de Sá Carneiro Airport (LPPR) |
| Time | Latitude | Longitude | Altitude | Speed | Heading |
|---|---|---|---|---|---|
| 2026-05-01 15:02 | 49.63387 | 6.21794 | 1232 ft | 0 kts | 330° |
| 2026-05-01 15:03 | 49.63385 | 6.21795 | 1231 ft | 1 kts | 330° |
| 2026-05-01 15:04 | 49.63387 | 6.21794 | 1232 ft | 0 kts | 330° |
| 2026-05-01 15:21 | 49.63386 | 6.21795 | 1232 ft | 0 kts | 329° |
| 2026-05-01 15:21 | 49.63374 | 6.21804 | 1230 ft | 2 kts | 334° |
| 2026-05-01 15:22 | 49.63359 | 6.21818 | 1229 ft | 0 kts | 329° |
| 2026-05-01 15:22 | 49.63350 | 6.21826 | 1228 ft | 2 kts | 306° |
| 2026-05-01 15:22 | 49.63346 | 6.21848 | 1227 ft | 2 kts | 262° |
| 2026-05-01 15:23 | 49.63348 | 6.21861 | 1227 ft | 1 kts | 237° |
| 2026-05-01 15:23 | 49.63352 | 6.21870 | 1227 ft | 0 kts | 239° |
| 2026-05-01 15:26 | 49.63325 | 6.21800 | 1228 ft | 16 kts | 241° |
| 2026-05-01 15:26 | 49.63272 | 6.21650 | 1230 ft | 14 kts | 252° |
| 2026-05-01 15:26 | 49.63245 | 6.21523 | 1232 ft | 11 kts | 201° |
| 2026-05-01 15:27 | 49.63163 | 6.21588 | 1227 ft | 15 kts | 148° |
| 2026-05-01 15:27 | 49.63059 | 6.21586 | 1222 ft | 19 kts | 243° |
| 2026-05-01 15:27 | 49.63007 | 6.21419 | 1224 ft | 17 kts | 244° |
| 2026-05-01 15:28 | 49.62913 | 6.21114 | 1231 ft | 22 kts | 244° |
| 2026-05-01 15:28 | 49.62844 | 6.20895 | 1232 ft | 23 kts | 243° |
| 2026-05-01 15:28 | 49.62766 | 6.20695 | 1229 ft | 24 kts | 224° |
| 2026-05-01 15:29 | 49.62548 | 6.20372 | 1219 ft | 22 kts | 229° |
| 2026-05-01 15:29 | 49.62457 | 6.20173 | 1213 ft | 24 kts | 239° |
| 2026-05-01 15:29 | 49.62262 | 6.19646 | 1188 ft | 27 kts | 239° |
| 2026-05-01 15:30 | 49.62248 | 6.19609 | 1186 ft | 0 kts | 240° |
| 2026-05-01 15:31 | 49.62105 | 6.19678 | 1187 ft | 11 kts | 81° |
| 2026-05-01 15:31 | 49.62123 | 6.19751 | 1190 ft | 0 kts | 59° |
| 2026-05-01 15:32 | 49.62317 | 6.20267 | 1212 ft | 98 kts | 60° |
| 2026-05-01 15:32 | 49.63477 | 6.23435 | 1701 ft | 202 kts | 63° |
| 2026-05-01 15:33 | 49.65619 | 6.29164 | 3908 ft | 235 kts | 62° |
| 2026-05-01 15:34 | 49.68243 | 6.36241 | 3970 ft | 274 kts | 62° |